Time;durP1;ratioP1;P1;durP2;ratioP2;P2;SDS_P1;SDS_P2;PMS_P1;PMS_P2;Temp;Humidity;BMP_temperature;BMP_pressure;BME280_temperature;BME280_humidity;BME280_pressure;Samples;Min_cycle;Max_cycle;Signal;HPM_P1;HPM_P2
2021/10/27 00:01:44;;;;;;;;;;;17.00;95.10;;;;;;5088453;28;19907;-79
2021/10/27 00:04:10;;;;;;;;;;;16.90;95.20;;;;;;5088279;28;20385;-77
2021/10/27 00:06:36;;;;;;;;;;;16.80;95.40;;;;;;5087279;28;19904;-78
2021/10/27 00:09:05;;;;;;;;;;;16.80;95.60;;;;;;5088687;28;19908;-79
2021/10/27 00:11:31;;;;;;;;;;;16.70;95.80;;;;;;5087044;28;19904;-78
2021/10/27 00:13:57;;;;;;;;;;;16.70;96.00;;;;;;5086869;28;19961;-77
2021/10/27 00:16:22;;;;;;;;;;;16.70;96.10;;;;;;5088451;28;20315;-76
2021/10/27 00:18:48;;;;;;;;;;;16.70;96.20;;;;;;5088352;28;19911;-77
2021/10/27 00:21:14;;;;;;;;;;;16.60;96.40;;;;;;5088279;28;19961;-78
2021/10/27 00:23:39;;;;;;;;;;;16.50;96.60;;;;;;5087057;28;20293;-78
2021/10/27 00:26:05;;;;;;;;;;;16.40;96.90;;;;;;5087122;28;19914;-78
2021/10/27 00:28:30;;;;;;;;;;;16.30;97.10;;;;;;5087001;28;19965;-79
2021/10/27 00:30:56;;;;;;;;;;;16.20;97.40;;;;;;5069983;28;19908;-78
2021/10/27 00:33:22;;;;;;;;;;;16.20;97.70;;;;;;5086863;28;19908;-78
2021/10/27 00:35:48;;;;;;;;;;;16.10;97.90;;;;;;5088232;28;19908;-78
2021/10/27 00:38:14;;;;;;;;;;;16.20;98.10;;;;;;5086752;28;19911;-78
2021/10/27 00:40:39;;;;;;;;;;;16.10;98.20;;;;;;5088030;28;20018;-77
2021/10/27 00:43:05;;;;;;;;;;;16.10;98.30;;;;;;5086712;28;19915;-78
2021/10/27 00:45:30;;;;;;;;;;;16.10;98.40;;;;;;5088047;28;19904;-78
2021/10/27 00:47:56;;;;;;;;;;;16.10;98.50;;;;;;5086852;28;20044;-80
2021/10/27 00:50:21;;;;;;;;;;;16.10;98.60;;;;;;5087948;28;19904;-79
2021/10/27 00:52:47;;;;;;;;;;;16.10;98.60;;;;;;5087920;28;20392;-78
2021/10/27 00:55:13;;;;;;;;;;;16.10;98.70;;;;;;5086807;28;19915;-79
2021/10/27 00:57:39;;;;;;;;;;;16.10;98.70;;;;;;5088018;28;19992;-79
2021/10/27 01:00:06;;;;;;;;;;;16.20;98.70;;;;;;5087947;28;19908;-80
2021/10/27 01:02:31;;;;;;;;;;;16.20;98.80;;;;;;5087841;28;19912;-76
2021/10/27 01:04:57;;;;;;;;;;;16.20;98.90;;;;;;5086393;28;20330;-79
2021/10/27 01:07:23;;;;;;;;;;;16.20;99.00;;;;;;5086529;28;19920;-78
2021/10/27 01:09:49;;;;;;;;;;;16.10;99.10;;;;;;5087928;28;19926;-80
2021/10/27 01:12:14;;;;;;;;;;;16.10;99.20;;;;;;5087732;28;19915;-79
2021/10/27 01:14:44;;;;;;;;;;;16.20;99.30;;;;;;5086507;28;20213;-80
2021/10/27 01:17:12;;;;;;;;;;;16.20;99.40;;;;;;5087827;28;19907;-78
2021/10/27 01:19:43;;;;;;;;;;;16.20;99.50;;;;;;5086471;28;20278;-78
2021/10/27 01:22:08;;;;;;;;;;;16.10;99.50;;;;;;5087674;28;19904;-79
2021/10/27 01:24:34;;;;;;;;;;;16.10;99.60;;;;;;5069731;28;19961;-80
2021/10/27 01:26:59;;;;;;;;;;;16.10;99.80;;;;;;5090110;28;19988;-82
2021/10/27 01:29:25;;;;;;;;;;;16.10;99.90;;;;;;5091463;28;19908;-78
2021/10/27 01:31:50;;;;;;;;;;;16.10;99.90;;;;;;5091288;28;20358;-79
2021/10/27 01:34:16;;;;;;;;;;;16.00;99.90;;;;;;5091551;28;19908;-75
2021/10/27 01:36:42;;;;;;;;;;;16.00;99.90;;;;;;5090052;28;19919;-80
2021/10/27 01:39:09;;;;;;;;;;;16.00;99.90;;;;;;5089946;28;19915;-77
2021/10/27 01:41:35;;;;;;;;;;;16.00;99.90;;;;;;5091625;28;19911;-81
2021/10/27 01:44:00;;;;;;;;;;;15.90;99.90;;;;;;5089767;28;19914;-76
2021/10/27 01:46:32;;;;;;;;;;;16.00;99.90;;;;;;5091121;28;19908;-79
2021/10/27 01:48:58;;;;;;;;;;;16.00;99.90;;;;;;5089829;28;20402;-79
2021/10/27 01:51:25;;;;;;;;;;;16.00;99.90;;;;;;5089870;28;19908;-79
2021/10/27 01:53:51;;;;;;;;;;;16.00;99.90;;;;;;5089816;28;19961;-77
2021/10/27 01:56:16;;;;;;;;;;;16.10;99.90;;;;;;5089633;28;19903;-79
2021/10/27 01:58:42;;;;;;;;;;;16.10;99.90;;;;;;5089577;28;20014;-78
2021/10/27 02:01:07;;;;;;;;;;;16.10;99.90;;;;;;5089396;28;19917;-81
2021/10/27 02:03:33;;;;;;;;;;;16.10;99.90;;;;;;5089368;28;20392;-79
2021/10/27 02:05:58;;;;;;;;;;;16.20;99.90;;;;;;5090713;28;19912;-80
2021/10/27 02:08:24;;;;;;;;;;;16.20;99.90;;;;;;5089301;28;19954;-79
2021/10/27 02:10:50;;;;;;;;;;;16.20;99.90;;;;;;5090821;28;19952;-77
2021/10/27 02:13:15;;;;;;;;;;;16.20;99.90;;;;;;5090596;28;19908;-78
2021/10/27 02:15:42;;;;;;;;;;;16.30;99.90;;;;;;5090597;28;20423;-76
2021/10/27 02:18:08;;;;;;;;;;;16.30;99.90;;;;;;5089138;28;19912;-79
2021/10/27 02:20:33;;;;;;;;;;;16.30;99.90;;;;;;5090383;28;19961;-77
2021/10/27 02:22:59;;;;;;;;;;;16.30;99.90;;;;;;5090320;28;20269;-79
2021/10/27 02:25:24;;;;;;;;;;;16.40;99.90;;;;;;5090368;28;20315;-79
2021/10/27 02:27:50;;;;;;;;;;;16.40;99.90;;;;;;5088925;28;19912;-80
2021/10/27 02:30:16;;;;;;;;;;;16.40;99.90;;;;;;5089038;28;19915;-79
2021/10/27 02:32:41;;;;;;;;;;;16.40;99.90;;;;;;5090201;28;19908;-77
2021/10/27 02:35:07;;;;;;;;;;;16.40;99.90;;;;;;5088978;28;19927;-80
2021/10/27 02:37:32;;;;;;;;;;;16.30;99.90;;;;;;5090003;28;19949;-79
2021/10/27 02:39:58;;;;;;;;;;;16.20;99.90;;;;;;5090122;28;19912;-80
2021/10/27 02:42:24;;;;;;;;;;;16.20;99.90;;;;;;5088637;28;19914;-79
2021/10/27 02:44:49;;;;;;;;;;;16.10;99.90;;;;;;5088694;28;20362;-80
2021/10/27 02:47:15;;;;;;;;;;;16.10;99.90;;;;;;5088648;28;19904;-78
2021/10/27 02:49:40;;;;;;;;;;;16.10;99.90;;;;;;5089913;28;19904;-80
2021/10/27 02:52:06;;;;;;;;;;;16.10;99.90;;;;;;5071623;28;19912;-80
2021/10/27 02:54:32;;;;;;;;;;;16.10;99.90;;;;;;5089719;28;19904;-81
2021/10/27 02:56:57;;;;;;;;;;;16.10;99.90;;;;;;5088405;28;19915;-79
2021/10/27 02:59:23;;;;;;;;;;;16.00;99.90;;;;;;5088361;28;20002;-81
2021/10/27 03:01:48;;;;;;;;;;;16.10;99.90;;;;;;5088429;28;20262;-81
2021/10/27 03:04:14;;;;;;;;;;;16.10;99.90;;;;;;5089376;28;19926;-78
2021/10/27 03:06:40;;;;;;;;;;;16.10;99.90;;;;;;5088157;28;20011;-77
2021/10/27 03:09:06;;;;;;;;;;;16.10;99.90;;;;;;5089685;28;19907;-80
2021/10/27 03:11:32;;;;;;;;;;;16.10;99.90;;;;;;5089388;28;19915;-79
2021/10/27 03:13:57;;;;;;;;;;;16.10;99.90;;;;;;5088173;28;20266;-79
2021/10/27 03:16:23;;;;;;;;;;;16.10;99.90;;;;;;5089476;28;19912;-79
2021/10/27 03:18:48;;;;;;;;;;;16.10;99.90;;;;;;5071194;28;19908;-81
2021/10/27 03:21:14;;;;;;;;;;;16.10;99.90;;;;;;5088187;28;20288;-81
2021/10/27 03:23:40;;;;;;;;;;;16.10;99.90;;;;;;5089168;28;20399;-79
2021/10/27 03:26:05;;;;;;;;;;;16.10;99.90;;;;;;5089291;28;19911;-79
2021/10/27 03:28:31;;;;;;;;;;;16.10;99.90;;;;;;5089316;28;20022;-79
2021/10/27 03:30:57;;;;;;;;;;;16.10;99.90;;;;;;5087725;28;19908;-78
2021/10/27 03:33:22;;;;;;;;;;;16.00;99.90;;;;;;5088980;28;20003;-78
2021/10/27 03:35:48;;;;;;;;;;;16.00;99.90;;;;;;5089109;28;19918;-79
2021/10/27 03:38:14;;;;;;;;;;;16.00;99.90;;;;;;5087799;28;20346;-77
2021/10/27 03:40:41;;;;;;;;;;;16.00;99.90;;;;;;5088857;28;20342;-80
2021/10/27 03:43:07;;;;;;;;;;;16.00;99.90;;;;;;5088815;28;20263;-78
2021/10/27 03:45:33;;;;;;;;;;;16.00;99.90;;;;;;5087583;28;19958;-78
2021/10/27 03:47:59;;;;;;;;;;;16.00;99.90;;;;;;5088353;28;20426;-81
2021/10/27 03:50:24;;;;;;;;;;;16.00;99.90;;;;;;5087489;28;20266;-77
2021/10/27 03:52:50;;;;;;;;;;;16.00;99.90;;;;;;5088648;28;19908;-79
2021/10/27 03:55:16;;;;;;;;;;;16.00;99.90;;;;;;5070669;28;19908;-77
2021/10/27 03:57:41;;;;;;;;;;;16.00;99.90;;;;;;5087279;28;19904;-78
2021/10/27 04:00:08;;;;;;;;;;;15.90;99.90;;;;;;5088619;28;19999;-79
2021/10/27 04:02:36;;;;;;;;;;;16.00;99.90;;;;;;5087252;28;19914;-79
2021/10/27 04:05:02;;;;;;;;;;;16.00;99.90;;;;;;5088445;28;19964;-77
2021/10/27 04:07:27;;;;;;;;;;;16.00;99.90;;;;;;5088515;28;20014;-78
2021/10/27 04:09:54;;;;;;;;;;;16.00;99.90;;;;;;5088443;28;19920;-78
2021/10/27 04:12:20;;;;;;;;;;;16.00;99.90;;;;;;5087064;28;20263;-77
2021/10/27 04:14:45;;;;;;;;;;;16.00;99.90;;;;;;5088455;28;20032;-77
2021/10/27 04:17:11;;;;;;;;;;;16.00;99.90;;;;;;5088330;28;19957;-78
2021/10/27 04:19:36;;;;;;;;;;;16.00;99.90;;;;;;5070201;28;19912;-79
2021/10/27 04:22:02;;;;;;;;;;;16.10;99.90;;;;;;5087099;28;19952;-80
2021/10/27 04:24:28;;;;;;;;;;;16.10;99.90;;;;;;5088185;28;19907;-80
2021/10/27 04:26:53;;;;;;;;;;;16.00;99.90;;;;;;5087050;28;20297;-79
2021/10/27 04:29:19;;;;;;;;;;;16.10;99.90;;;;;;5086898;28;19908;-80
2021/10/27 04:31:45;;;;;;;;;;;16.10;99.90;;;;;;5088189;28;20003;-80
2021/10/27 04:34:11;;;;;;;;;;;16.10;99.90;;;;;;5088152;28;20319;-80
2021/10/27 04:36:36;;;;;;;;;;;16.10;99.90;;;;;;5088006;28;19908;-78
2021/10/27 04:39:02;;;;;;;;;;;16.00;99.90;;;;;;5087805;28;19912;-79
2021/10/27 04:41:28;;;;;;;;;;;16.10;99.90;;;;;;5086813;28;19922;-79
2021/10/27 04:43:53;;;;;;;;;;;16.10;99.90;;;;;;5088153;28;20027;-77
2021/10/27 04:46:19;;;;;;;;;;;16.10;99.90;;;;;;5087181;28;19908;-79
2021/10/27 04:48:44;;;;;;;;;;;16.10;99.90;;;;;;5088093;28;19974;-78
2021/10/27 04:51:10;;;;;;;;;;;16.00;99.90;;;;;;5087889;28;20585;-78
2021/10/27 04:53:36;;;;;;;;;;;16.10;99.90;;;;;;5086783;28;19911;-80
2021/10/27 04:56:02;;;;;;;;;;;16.10;99.90;;;;;;5086700;28;19907;-81
2021/10/27 04:58:30;;;;;;;;;;;16.10;99.90;;;;;;5087939;28;20335;-79
2021/10/27 05:00:55;;;;;;;;;;;16.10;99.90;;;;;;5090364;28;20198;-78
2021/10/27 05:03:21;;;;;;;;;;;16.20;99.90;;;;;;5091752;28;20006;-77
2021/10/27 05:05:49;;;;;;;;;;;16.20;99.90;;;;;;5073639;28;20056;-80
2021/10/27 05:08:17;;;;;;;;;;;16.20;99.90;;;;;;5091795;28;20163;-79
2021/10/27 05:10:42;;;;;;;;;;;16.30;99.90;;;;;;5091908;28;19904;-79
2021/10/27 05:13:08;;;;;;;;;;;16.30;99.90;;;;;;5091682;28;20413;-80
2021/10/27 05:15:33;;;;;;;;;;;16.30;99.90;;;;;;5090387;28;19911;-80
2021/10/27 05:17:59;;;;;;;;;;;16.30;99.90;;;;;;5091574;28;20251;-78
2021/10/27 05:20:24;;;;;;;;;;;16.40;99.90;;;;;;5090320;28;20269;-77
2021/10/27 05:22:50;;;;;;;;;;;16.40;99.90;;;;;;5090041;28;19912;-78
2021/10/27 05:25:16;;;;;;;;;;;16.50;99.90;;;;;;5091384;28;19908;-77
2021/10/27 05:27:41;;;;;;;;;;;16.50;99.90;;;;;;5090083;28;19931;-78
2021/10/27 05:30:07;;;;;;;;;;;16.50;99.90;;;;;;5090014;28;19916;-80
2021/10/27 05:32:33;;;;;;;;;;;16.50;99.90;;;;;;5091218;28;19918;-78
2021/10/27 05:34:59;;;;;;;;;;;16.50;99.90;;;;;;5090335;28;20009;-79
2021/10/27 05:37:24;;;;;;;;;;;16.50;99.90;;;;;;5091266;28;19904;-77
2021/10/27 05:39:50;;;;;;;;;;;16.50;99.90;;;;;;5091318;28;19916;-76
2021/10/27 05:42:21;;;;;;;;;;;16.50;99.90;;;;;;5072989;28;19953;-77
2021/10/27 05:44:48;;;;;;;;;;;16.50;99.90;;;;;;5091101;28;19912;-79
2021/10/27 05:47:13;;;;;;;;;;;16.50;99.90;;;;;;5089887;28;19908;-78
2021/10/27 05:49:46;;;;;;;;;;;16.50;99.90;;;;;;5091305;28;20309;-76
2021/10/27 05:57:22;;;;;;;;;;;16.50;99.90;;;;;;5091137;28;19962;-77
2021/10/27 05:59:51;;;;;;;;;;;16.50;99.90;;;;;;5072769;28;19951;-79
2021/10/27 06:02:17;;;;;;;;;;;16.50;99.90;;;;;;5090650;28;19908;-76
2021/10/27 06:04:43;;;;;;;;;;;16.60;99.90;;;;;;5090198;28;19982;-81
2021/10/27 06:07:08;;;;;;;;;;;16.60;99.90;;;;;;5090601;28;19912;-78
2021/10/27 06:09:34;;;;;;;;;;;16.60;99.90;;;;;;5088884;28;19907;-80
2021/10/27 06:12:03;;;;;;;;;;;16.60;99.90;;;;;;5089867;28;19927;-77
2021/10/27 06:14:31;;;;;;;;;;;16.60;99.90;;;;;;5090571;28;20270;-79
2021/10/27 06:16:56;;;;;;;;;;;16.60;99.90;;;;;;5088777;28;20388;-77
2021/10/27 06:19:22;;;;;;;;;;;16.60;99.90;;;;;;5090496;28;19943;-80
2021/10/27 06:21:48;;;;;;;;;;;16.70;99.90;;;;;;5090360;28;19908;-80
2021/10/27 06:24:14;;;;;;;;;;;16.70;99.90;;;;;;5088811;28;19912;-75
2021/10/27 06:26:40;;;;;;;;;;;16.70;99.90;;;;;;5089929;28;19908;-71
2021/10/27 06:29:09;;;;;;;;;;;16.70;99.90;;;;;;5089980;28;19904;-75
2021/10/27 06:36:34;;;;;;;;;;;16.70;99.90;;;;;;5090189;28;19914;-75
2021/10/27 06:47:03;;;;;;;;;;;16.70;99.90;;;;;;5089145;28;19919;-80
2021/10/27 06:49:30;;;;;;;;;;;16.70;99.90;;;;;;5089628;28;19904;-80
2021/10/27 06:51:56;;;;;;;;;;;16.70;99.90;;;;;;5089498;28;19930;-78
2021/10/27 06:54:22;;;;;;;;;;;16.70;99.90;;;;;;5071547;28;20006;-80
2021/10/27 06:56:47;;;;;;;;;;;16.70;99.90;;;;;;5089536;28;19951;-76
2021/10/27 06:59:22;;;;;;;;;;;16.80;99.90;;;;;;5089212;28;19910;-78
2021/10/27 07:17:29;;;;;;;;;;;16.80;99.90;;;;;;5089320;28;19916;-78
2021/10/27 07:19:55;;;;;;;;;;;16.80;99.90;;;;;;5089334;28;19912;-78
2021/10/27 07:22:21;;;;;;;;;;;16.80;99.90;;;;;;5070237;28;19908;-79
2021/10/27 07:24:46;;;;;;;;;;;16.80;99.90;;;;;;5070747;28;19948;-79
2021/10/27 07:27:12;;;;;;;;;;;16.80;99.90;;;;;;5089207;28;20007;-80
2021/10/27 07:29:41;;;;;;;;;;;16.80;99.90;;;;;;5087394;28;20267;-77
2021/10/27 07:32:08;;;;;;;;;;;16.80;99.90;;;;;;5087383;28;19912;-80
2021/10/27 07:34:43;;;;;;;;;;;16.80;99.90;;;;;;5088949;28;20381;-79
2021/10/27 07:42:18;;;;;;;;;;;16.80;99.90;;;;;;5088830;28;19912;-80
2021/10/27 07:44:45;;;;;;;;;;;16.80;99.90;;;;;;5088348;28;19981;-82
2021/10/27 07:47:11;;;;;;;;;;;16.80;99.90;;;;;;5088403;28;19914;-77
2021/10/27 07:49:36;;;;;;;;;;;16.80;99.90;;;;;;5086916;28;19904;-76
2021/10/27 07:52:02;;;;;;;;;;;16.90;99.90;;;;;;5088680;28;19934;-79
2021/10/27 07:54:28;;;;;;;;;;;16.90;99.90;;;;;;5087184;28;19909;-77
2021/10/27 07:56:54;;;;;;;;;;;16.80;99.90;;;;;;5087274;28;19909;-78
2021/10/27 07:59:21;;;;;;;;;;;16.90;99.90;;;;;;5070141;28;19931;-79
2021/10/27 08:01:46;;;;;;;;;;;16.90;99.90;;;;;;5086817;28;20045;-78
2021/10/27 08:04:12;;;;;;;;;;;16.90;99.90;;;;;;5086623;28;20320;-77
2021/10/27 08:06:37;;;;;;;;;;;16.90;99.90;;;;;;5086948;28;19934;-77
2021/10/27 08:09:03;;;;;;;;;;;16.90;99.90;;;;;;5088388;28;19916;-78
2021/10/27 08:11:29;;;;;;;;;;;16.80;99.90;;;;;;5086831;28;20064;-76
2021/10/27 08:13:55;;;;;;;;;;;16.80;99.90;;;;;;5088399;28;19916;-79
2021/10/27 08:16:21;;;;;;;;;;;16.80;99.90;;;;;;5087084;28;19908;-79
2021/10/27 08:18:47;;;;;;;;;;;16.70;99.90;;;;;;5086644;28;20263;-78
2021/10/27 08:21:12;;;;;;;;;;;16.70;99.90;;;;;;5086372;28;20357;-76
2021/10/27 08:23:42;;;;;;;;;;;16.70;99.90;;;;;;5087890;28;20294;-77
2021/10/27 08:26:11;;;;;;;;;;;16.80;99.90;;;;;;5086611;28;19908;-81
2021/10/27 08:28:43;;;;;;;;;;;16.80;99.90;;;;;;5086418;28;19911;-79
2021/10/27 08:31:26;;;;;;;;;;;16.90;99.90;;;;;;5070433;28;19908;-77
2021/10/27 08:36:26;;;;;;;;;;;17.20;99.90;;;;;;5087935;28;20166;-76
2021/10/27 08:38:53;;;;;;;;;;;17.30;99.90;;;;;;5086454;28;19965;-79
2021/10/27 08:41:19;;;;;;;;;;;17.50;99.90;;;;;;5087748;28;19908;-80
2021/10/27 08:43:45;;;;;;;;;;;17.60;99.90;;;;;;5069541;28;20362;-78
2021/10/27 08:46:13;;;;;;;;;;;17.70;99.90;;;;;;5087616;28;19908;-78
2021/10/27 08:48:42;;;;;;;;;;;18.00;99.90;;;;;;5087260;28;19908;-78
2021/10/27 08:51:09;;;;;;;;;;;18.40;99.90;;;;;;5087823;28;19904;-79
2021/10/27 08:53:36;;;;;;;;;;;18.60;99.90;;;;;;5086540;28;20014;-78
2021/10/27 08:56:03;;;;;;;;;;;18.70;99.90;;;;;;5087677;28;19916;-79
2021/10/27 08:58:35;;;;;;;;;;;18.70;99.90;;;;;;5086431;28;19903;-78
2021/10/27 09:01:13;;;;;;;;;;;18.60;99.80;;;;;;5087694;28;20335;-78
2021/10/27 09:14:52;;;;;;;;;;;19.50;98.70;;;;;;5089980;28;20415;-77
2021/10/27 09:35:29;;;;;;;;;;;18.10;99.50;;;;;;5102808;28;19911;-79
2021/10/27 09:37:54;;;;;;;;;;;18.10;99.60;;;;;;5099805;28;19918;-80
2021/10/27 09:43:16;;;;;;;;;;;18.10;99.50;;;;;;5107363;28;20368;-79
2021/10/27 10:04:02;;;;;;;;;;;18.10;99.30;;;;;;5092844;28;20423;-74
2021/10/27 10:05:09;;;;;;;;;;;18.10;99.40;;;;;;5092749;28;19954;-76
2021/10/27 10:07:36;;;;;;;;;;;18.10;99.60;;;;;;5092184;28;19911;-78
2021/10/27 10:10:03;;;;;;;;;;;18.20;99.60;;;;;;5102761;28;20447;-76
2021/10/27 10:12:31;;;;;;;;;;;18.40;99.50;;;;;;5101254;28;21297;-76
2021/10/27 10:14:57;;;;;;;;;;;18.50;99.50;;;;;;5111332;28;19904;-77
2021/10/27 10:17:23;;;;;;;;;;;18.70;99.30;;;;;;5084753;28;19915;-75
2021/10/27 10:19:49;;;;;;;;;;;18.80;99.00;;;;;;5098850;28;19915;-79
2021/10/27 10:22:47;;;;;;;;;;;18.90;98.80;;;;;;5100285;28;19912;-78
2021/10/27 10:25:13;;;;;;;;;;;18.90;98.50;;;;;;5063447;28;19912;-74
2021/10/27 10:27:39;;;;;;;;;;;18.80;98.50;;;;;;5100819;28;19904;-74
2021/10/27 10:30:23;;;;;;;;;;;18.80;98.30;;;;;;5105221;28;19953;-78
2021/10/27 10:32:59;;;;;;;;;;;18.70;98.30;;;;;;5102217;28;19918;-76
2021/10/27 10:35:34;;;;;;;;;;;18.50;98.40;;;;;;5097775;28;20315;-80
2021/10/27 11:00:09;;;;;;;;;;;17.60;99.30;;;;;;5091228;28;19935;-79
2021/10/27 11:03:23;;;;;;;;;;;17.60;99.50;;;;;;5092593;28;19911;-78
2021/10/27 11:25:09;;;;;;;;;;;17.50;99.60;;;;;;5109656;28;19934;-77
2021/10/27 11:41:38;;;;;;;;;;;17.70;99.60;;;;;;5106276;28;19965;-79
2021/10/27 11:46:47;;;;;;;;;;;17.90;99.60;;;;;;5101869;28;19908;-79
2021/10/27 11:49:14;;;;;;;;;;;17.90;99.50;;;;;;5097741;28;19908;-80
2021/10/27 11:51:40;;;;;;;;;;;18.00;99.60;;;;;;5091196;28;19911;-76
2021/10/27 11:54:11;;;;;;;;;;;18.10;99.60;;;;;;5100797;28;19903;-78
2021/10/27 11:56:37;;;;;;;;;;;18.30;99.80;;;;;;5101281;28;19904;-80
2021/10/27 11:59:02;;;;;;;;;;;18.50;99.60;;;;;;5111787;28;19956;-81
2021/10/27 12:01:37;;;;;;;;;;;18.90;99.60;;;;;;5110436;28;19911;-75
2021/10/27 12:04:04;;;;;;;;;;;19.40;99.70;;;;;;5099938;28;19923;-78
2021/10/27 12:11:33;;;;;;;;;;;19.60;97.30;;;;;;5106913;28;19904;-75
2021/10/27 12:14:35;;;;;;;;;;;19.60;97.30;;;;;;5099237;28;20012;-77
2021/10/27 12:17:25;;;;;;;;;;;19.40;97.20;;;;;;5092058;28;20307;-77
2021/10/27 12:19:51;;;;;;;;;;;19.30;97.30;;;;;;5103639;28;19919;-79
2021/10/27 12:22:20;;;;;;;;;;;19.20;97.10;;;;;;5099053;28;20324;-79
2021/10/27 12:24:52;;;;;;;;;;;19.00;97.30;;;;;;5108855;28;19945;-79
2021/10/27 12:27:28;;;;;;;;;;;19.00;97.50;;;;;;5108756;28;19904;-75
2021/10/27 12:29:55;;;;;;;;;;;18.90;97.50;;;;;;5109095;28;19907;-77
2021/10/27 12:32:22;;;;;;;;;;;18.90;97.60;;;;;;5108502;28;19904;-76
2021/10/27 12:34:49;;;;;;;;;;;18.80;97.60;;;;;;5109283;28;20269;-76
2021/10/27 12:37:20;;;;;;;;;;;18.70;97.50;;;;;;5108821;28;19923;-76
2021/10/27 12:39:47;;;;;;;;;;;18.70;97.60;;;;;;5107791;28;19903;-76
2021/10/27 12:42:13;;;;;;;;;;;18.70;97.60;;;;;;5094915;28;20349;-76
2021/10/27 12:44:48;;;;;;;;;;;18.60;97.70;;;;;;5092206;28;19938;-76
2021/10/27 12:47:14;;;;;;;;;;;18.60;97.70;;;;;;5097533;28;19908;-77
2021/10/27 12:49:40;;;;;;;;;;;18.60;97.80;;;;;;5097386;28;20311;-75
2021/10/27 12:52:25;;;;;;;;;;;18.60;97.80;;;;;;5094752;28;19903;-75
2021/10/27 12:55:29;;;;;;;;;;;18.50;97.90;;;;;;5100300;28;19915;-77
2021/10/27 12:57:59;;;;;;;;;;;18.50;98.00;;;;;;5037433;28;19909;-77
2021/10/27 13:11:32;;;;;;;;;;;18.80;98.10;;;;;;5100739;28;20004;-76
2021/10/27 13:14:10;;;;;;;;;;;18.80;98.20;;;;;;5102301;28;19911;-76
2021/10/27 13:19:36;;;;;;;;;;;19.00;97.70;;;;;;5094315;28;19904;-75
2021/10/27 13:29:33;;;;;;;;;;;19.00;97.40;;;;;;5101558;28;19929;-78
2021/10/27 13:30:13;;;;;;;;;;;18.90;97.40;;;;;;5101732;28;19955;-74
2021/10/27 13:32:52;;;;;;;;;;;18.90;97.60;;;;;;5099332;28;19908;-74
2021/10/27 13:35:17;;;;;;;;;;;18.90;97.60;;;;;;5098177;28;19998;-76
2021/10/27 13:37:43;;;;;;;;;;;18.90;97.70;;;;;;5113746;28;19958;-75
2021/10/27 13:40:09;;;;;;;;;;;18.90;97.60;;;;;;5109062;28;19954;-78
2021/10/27 13:43:19;;;;;;;;;;;18.90;97.70;;;;;;5093515;28;20411;-79
2021/10/27 13:45:48;;;;;;;;;;;18.90;97.70;;;;;;5097015;28;20012;-79
2021/10/27 14:05:56;;;;;;;;;;;18.90;97.60;;;;;;5113612;28;19993;-79
2021/10/27 14:07:38;;;;;;;;;;;18.70;97.70;;;;;;5097199;28;19915;-79
2021/10/27 14:10:17;;;;;;;;;;;18.70;97.80;;;;;;5093726;28;19908;-80
2021/10/27 14:12:54;;;;;;;;;;;18.60;97.90;;;;;;5111511;28;19908;-79
2021/10/27 14:18:31;;;;;;;;;;;18.50;98.10;;;;;;5093799;28;19908;-76
2021/10/27 14:48:14;;;;;;;;;;;17.90;99.20;;;;;;5109550;28;19918;-75
2021/10/27 14:51:03;;;;;;;;;;;17.90;99.30;;;;;;5100515;28;19908;-76
2021/10/27 15:20:57;;;;;;;;;;;17.90;99.90;;;;;;5091587;28;19911;-79
2021/10/27 15:23:37;;;;;;;;;;;17.90;99.90;;;;;;5091109;28;19922;-78
2021/10/27 15:52:23;;;;;;;;;;;17.60;99.90;;;;;;5099357;28;19911;-78
2021/10/27 15:54:49;;;;;;;;;;;17.60;99.90;;;;;;5108170;28;20372;-79
2021/10/27 15:57:14;;;;;;;;;;;17.60;99.90;;;;;;5096784;28;19994;-78
2021/10/27 15:59:41;;;;;;;;;;;17.50;99.90;;;;;;5109905;28;19911;-79
2021/10/27 16:02:07;;;;;;;;;;;17.60;99.90;;;;;;5093588;28;20022;-79
2021/10/27 16:04:33;;;;;;;;;;;17.60;99.90;;;;;;5099021;28;20393;-79
2021/10/27 16:07:00;;;;;;;;;;;17.50;99.90;;;;;;5080143;28;20400;-78
2021/10/27 16:09:30;;;;;;;;;;;17.50;99.90;;;;;;5090594;28;19904;-77
2021/10/27 16:11:55;;;;;;;;;;;17.50;99.90;;;;;;5103944;28;19908;-82
2021/10/27 16:14:23;;;;;;;;;;;17.50;99.90;;;;;;5100234;28;20367;-77
2021/10/27 16:16:49;;;;;;;;;;;17.50;99.90;;;;;;5108948;28;19920;-80
2021/10/27 16:19:14;;;;;;;;;;;17.50;99.90;;;;;;5094740;28;20678;-77
2021/10/27 16:21:40;;;;;;;;;;;17.50;99.90;;;;;;5109617;28;19943;-81
2021/10/27 16:24:06;;;;;;;;;;;17.50;99.90;;;;;;5079491;28;20014;-82
2021/10/27 16:26:31;;;;;;;;;;;17.50;99.90;;;;;;5091503;28;19922;-80
2021/10/27 16:28:57;;;;;;;;;;;17.50;99.90;;;;;;5090529;28;19904;-79
2021/10/27 16:31:24;;;;;;;;;;;17.50;99.90;;;;;;5094635;28;19999;-80
2021/10/27 16:33:49;;;;;;;;;;;17.40;99.90;;;;;;5110581;28;20352;-80
2021/10/27 16:36:15;;;;;;;;;;;17.40;99.90;;;;;;5106611;28;19912;-77
2021/10/27 16:38:41;;;;;;;;;;;17.40;99.90;;;;;;5110004;28;19911;-81
2021/10/27 16:41:07;;;;;;;;;;;17.40;99.90;;;;;;5096008;28;20362;-83
2021/10/27 16:43:33;;;;;;;;;;;17.40;99.90;;;;;;5103342;28;19914;-80
2021/10/27 16:45:59;;;;;;;;;;;17.40;99.90;;;;;;5092265;28;19953;-78
2021/10/27 16:48:26;;;;;;;;;;;17.40;99.90;;;;;;5110399;28;19904;-82
2021/10/27 16:50:52;;;;;;;;;;;17.40;99.90;;;;;;5111517;28;20285;-80
2021/10/27 16:53:19;;;;;;;;;;;17.40;99.90;;;;;;5092592;28;20008;-81
2021/10/27 16:55:46;;;;;;;;;;;17.40;99.90;;;;;;5102344;28;19938;-83
2021/10/27 16:58:13;;;;;;;;;;;17.40;99.90;;;;;;5103237;28;19940;-80
2021/10/27 17:00:40;;;;;;;;;;;17.30;99.90;;;;;;5110117;28;19953;-77
2021/10/27 17:03:05;;;;;;;;;;;17.30;99.90;;;;;;5097925;28;19911;-79
2021/10/27 17:05:31;;;;;;;;;;;17.40;99.90;;;;;;5107567;28;19928;-77
2021/10/27 17:07:57;;;;;;;;;;;17.40;99.90;;;;;;5104082;28;19911;-80
2021/10/27 17:10:23;;;;;;;;;;;17.40;99.90;;;;;;5108395;28;20026;-80
2021/10/27 17:12:48;;;;;;;;;;;17.40;99.90;;;;;;5096468;28;20401;-80
2021/10/27 17:15:14;;;;;;;;;;;17.40;99.90;;;;;;5106882;28;19958;-78
2021/10/27 17:17:41;;;;;;;;;;;17.30;99.90;;;;;;5103899;28;19918;-81
2021/10/27 17:20:07;;;;;;;;;;;17.30;99.90;;;;;;5101701;28;19953;-77
2021/10/27 17:22:38;;;;;;;;;;;17.20;99.90;;;;;;5101922;28;19915;-77
2021/10/27 17:25:04;;;;;;;;;;;17.20;99.90;;;;;;5082403;28;19912;-80
2021/10/27 17:27:30;;;;;;;;;;;17.20;99.90;;;;;;5101088;28;19904;-81
2021/10/27 17:29:55;;;;;;;;;;;17.20;99.90;;;;;;5078771;28;19907;-78
2021/10/27 17:32:21;;;;;;;;;;;17.20;99.90;;;;;;5105840;28;20319;-77
2021/10/27 17:34:47;;;;;;;;;;;17.20;99.90;;;;;;5103630;28;19907;-77
2021/10/27 17:37:14;;;;;;;;;;;17.10;99.90;;;;;;5102062;28;19915;-77
2021/10/27 17:39:41;;;;;;;;;;;17.20;99.90;;;;;;5096006;28;19987;-82
2021/10/27 17:42:09;;;;;;;;;;;17.20;99.90;;;;;;5083847;28;20009;-81
2021/10/27 17:44:34;;;;;;;;;;;17.20;99.90;;;;;;5095930;28;19912;-82
2021/10/27 17:47:04;;;;;;;;;;;17.20;99.90;;;;;;5095634;28;20238;-79
2021/10/27 17:49:47;;;;;;;;;;;17.20;99.90;;;;;;5114103;28;19903;-79
2021/10/27 17:52:28;;;;;;;;;;;17.20;99.90;;;;;;5112948;28;19903;-81
2021/10/27 18:00:09;;;;;;;;;;;17.00;99.90;;;;;;5110916;28;19954;-80
2021/10/27 18:02:37;;;;;;;;;;;17.00;99.90;;;;;;5093164;28;19913;-79
2021/10/27 18:05:03;;;;;;;;;;;17.00;99.90;;;;;;5091888;28;19916;-80
2021/10/27 18:07:31;;;;;;;;;;;17.00;99.90;;;;;;5101309;28;19907;-77
2021/10/27 18:09:57;;;;;;;;;;;16.90;99.90;;;;;;5113081;28;19914;-80
2021/10/27 18:12:25;;;;;;;;;;;16.90;99.90;;;;;;5102978;28;19907;-80
2021/10/27 18:14:52;;;;;;;;;;;16.80;99.90;;;;;;5094821;28;19911;-76
2021/10/27 18:17:21;;;;;;;;;;;16.80;99.90;;;;;;5112661;28;20334;-81
2021/10/27 18:20:03;;;;;;;;;;;16.80;99.90;;;;;;5094362;28;19915;-78
2021/10/27 18:40:55;;;;;;;;;;;16.70;99.90;;;;;;5108855;28;19907;-80
2021/10/27 18:43:24;;;;;;;;;;;16.70;99.90;;;;;;5108418;28;19907;-82
2021/10/27 18:45:51;;;;;;;;;;;16.80;99.90;;;;;;5105546;28;20332;-79
2021/10/27 18:48:17;;;;;;;;;;;16.70;99.90;;;;;;5105524;28;19935;-80
2021/10/27 18:51:34;;;;;;;;;;;16.70;99.90;;;;;;5105553;28;19912;-80
2021/10/27 18:56:19;;;;;;;;;;;16.70;99.90;;;;;;5107411;28;19903;-78
2021/10/27 19:12:51;;;;;;;;;;;16.70;99.90;;;;;;5108497;28;19915;-79
2021/10/27 19:17:25;;;;;;;;;;;16.70;99.90;;;;;;5109721;28;20406;-76
2021/10/27 19:19:52;;;;;;;;;;;16.70;99.90;;;;;;5108815;28;19904;-83
2021/10/27 19:22:18;;;;;;;;;;;16.80;99.90;;;;;;5109529;28;19943;-78
2021/10/27 19:24:58;;;;;;;;;;;16.70;99.90;;;;;;5108845;28;19966;-77
2021/10/27 20:05:38;;;;;;;;;;;16.70;99.90;;;;;;5104621;28;19919;-82
2021/10/27 20:07:54;;;;;;;;;;;16.70;99.90;;;;;;5105216;28;19934;-79
2021/10/27 20:10:42;;;;;;;;;;;16.60;99.90;;;;;;5104255;28;19969;-78
2021/10/27 20:23:22;;;;;;;;;;;16.60;99.90;;;;;;5103951;28;19912;-78
2021/10/27 20:53:27;;;;;;;;;;;16.40;99.90;;;;;;5090244;28;19966;-80